Time;durP1;ratioP1;P1;durP2;ratioP2;P2;SDS_P1;SDS_P2;PMS_P1;PMS_P2;Temp;Humidity;BMP_temperature;BMP_pressure;BME280_temperature;BME280_humidity;BME280_pressure;Samples;Min_cycle;Max_cycle;Signal;HPM_P1;HPM_P2
2022/01/22 00:00:22;;;;;;;6.93;3.00;;;;;;;;;;5112944;28;20030;-77
2022/01/22 00:02:49;;;;;;;6.78;2.63;;;;;;;;;;5113375;28;20490;-76
2022/01/22 00:05:16;;;;;;;6.80;3.35;;;;;;;;;;5113172;28;20020;-76
2022/01/22 00:07:42;;;;;;;6.53;3.00;;;;;;;;;;5113428;28;20114;-76
2022/01/22 00:10:14;;;;;;;6.18;2.75;;;;;;;;;;5113044;28;20394;-76
2022/01/22 00:15:08;;;;;;;6.47;2.97;;;;;;;;;;5112582;28;20028;-76
2022/01/22 00:17:34;;;;;;;5.18;2.65;;;;;;;;;;5113302;28;20030;-76
2022/01/22 00:20:00;;;;;;;6.82;3.22;;;;;;;;;;5113322;28;20024;-75
2022/01/22 00:22:30;;;;;;;6.32;2.95;;;;;;;;;;5112900;28;20115;-76
2022/01/22 00:24:59;;;;;;;5.72;2.80;;;;;;;;;;5112966;28;20501;-76
2022/01/22 00:27:25;;;;;;;5.88;2.75;;;;;;;;;;5112725;28;20023;-76
2022/01/22 00:29:51;;;;;;;6.40;2.63;;;;;;;;;;5093969;28;20026;-77
2022/01/22 00:32:17;;;;;;;5.43;3.17;;;;;;;;;;5112661;28;20035;-77
2022/01/22 00:34:43;;;;;;;7.15;3.13;;;;;;;;;;5111937;28;20019;-76
2022/01/22 00:37:10;;;;;;;5.90;2.40;;;;;;;;;;5112173;28;20081;-76
2022/01/22 00:39:36;;;;;;;5.03;2.30;;;;;;;;;;5112815;28;20035;-76
2022/01/22 00:42:04;;;;;;;5.55;2.75;;;;;;;;;;5112941;28;20023;-76
2022/01/22 00:44:30;;;;;;;5.28;2.97;;;;;;;;;;5112899;28;20491;-76
2022/01/22 00:46:59;;;;;;;8.52;2.65;;;;;;;;;;5094352;28;20038;-76
2022/01/22 00:49:25;;;;;;;5.63;3.20;;;;;;;;;;5112337;28;20019;-76
2022/01/22 00:51:51;;;;;;;4.43;2.55;;;;;;;;;;5112494;28;20027;-76
2022/01/22 00:54:17;;;;;;;5.45;2.70;;;;;;;;;;5112242;28;20030;-76
2022/01/22 00:56:43;;;;;;;6.65;2.80;;;;;;;;;;5112388;28;20020;-78
2022/01/22 00:59:09;;;;;;;7.38;3.30;;;;;;;;;;5093308;28;20030;-77
2022/01/22 01:01:35;;;;;;;4.25;2.65;;;;;;;;;;5111996;28;20441;-77
2022/01/22 01:04:03;;;;;;;6.07;2.72;;;;;;;;;;5112538;28;20023;-77
2022/01/22 01:06:29;;;;;;;4.07;2.45;;;;;;;;;;5112519;28;20471;-76
2022/01/22 01:08:55;;;;;;;6.40;3.00;;;;;;;;;;5093943;28;20073;-76
2022/01/22 01:11:25;;;;;;;6.63;3.17;;;;;;;;;;5111792;28;20068;-76
2022/01/22 01:13:56;;;;;;;7.18;2.85;;;;;;;;;;5112002;28;20032;-76
2022/01/22 01:35:20;;;;;;;4.78;2.78;;;;;;;;;;5111625;28;20505;-76
2022/01/22 01:37:47;;;;;;;4.85;2.47;;;;;;;;;;5111312;28;20032;-76
2022/01/22 01:40:16;;;;;;;5.05;2.65;;;;;;;;;;5111324;28;20032;-76
2022/01/22 01:43:02;;;;;;;4.55;2.55;;;;;;;;;;5111705;28;20464;-76
2022/01/22 01:45:28;;;;;;;;;;;;;;;;;;5111901;28;20137;-77
2022/01/22 01:47:56;;;;;;;6.35;2.92;;;;;;;;;;5111615;28;20387;-76
2022/01/22 01:50:22;;;;;;;6.32;3.10;;;;;;;;;;5111487;28;20031;-77
2022/01/22 01:53:03;;;;;;;4.78;2.58;;;;;;;;;;5093478;28;20023;-76
2022/01/22 01:58:14;;;;;;;4.20;2.63;;;;;;;;;;5111158;28;20039;-76
2022/01/22 02:00:40;;;;;;;5.97;2.42;;;;;;;;;;5111460;28;20031;-76
2022/01/22 02:03:08;;;;;;;4.28;2.50;;;;;;;;;;5111241;28;20036;-76
2022/01/22 02:05:35;;;;;;;6.53;2.85;;;;;;;;;;5111419;28;20035;-76
2022/01/22 02:08:01;;;;;;;6.53;3.08;;;;;;;;;;5111203;28;20375;-76
2022/01/22 02:10:30;;;;;;;4.25;2.53;;;;;;;;;;5093387;28;20066;-77
2022/01/22 02:24:02;;;;;;;4.47;2.70;;;;;;;;;;5112045;28;20071;-77
2022/01/22 02:26:29;;;;;;;7.15;2.80;;;;;;;;;;5111629;28;20518;-77
2022/01/22 02:28:55;;;;;;;4.47;2.58;;;;;;;;;;5111017;28;20364;-76
2022/01/22 02:36:41;;;;;;;7.05;3.20;;;;;;;;;;5110903;28;19915;-77
2022/01/22 02:39:21;;;;;;;3.75;2.28;;;;;;;;;;5092697;28;20034;-76
2022/01/22 02:41:50;;;;;;;5.43;2.10;;;;;;;;;;5111308;28;20387;-77
2022/01/22 02:44:33;;;;;;;3.42;2.00;;;;;;;;;;5110743;28;20066;-75
2022/01/22 02:47:00;;;;;;;4.40;2.53;;;;;;;;;;5111462;28;20487;-76
2022/01/22 02:49:26;;;;;;;3.63;2.30;;;;;;;;;;5110885;28;20403;-77
2022/01/22 02:51:52;;;;;;;7.28;2.65;;;;;;;;;;5111018;28;20063;-77
2022/01/22 02:54:18;;;;;;;6.28;2.80;;;;;;;;;;5110847;28;20439;-76
2022/01/22 02:56:44;;;;;;;4.88;2.20;;;;;;;;;;5111224;28;20050;-76
2022/01/22 02:59:10;;;;;;;4.97;2.60;;;;;;;;;;5113954;28;20391;-76
2022/01/22 03:01:38;;;;;;;6.20;2.60;;;;;;;;;;5114705;28;20034;-76
2022/01/22 03:04:04;;;;;;;4.07;2.30;;;;;;;;;;5114479;28;20032;-76
2022/01/22 03:06:30;;;;;;;4.47;2.28;;;;;;;;;;5114788;28;20038;-77
2022/01/22 03:08:56;;;;;;;5.50;2.60;;;;;;;;;;5114585;28;20023;-77
2022/01/22 03:11:29;;;;;;;4.78;2.70;;;;;;;;;;5114401;28;20054;-77
2022/01/22 03:22:41;;;;;;;4.32;2.30;;;;;;;;;;5088577;28;20071;-77
2022/01/22 03:27:52;;;;;;;4.13;2.20;;;;;;;;;;5113942;28;20533;-77
2022/01/22 03:30:19;;;;;;;4.63;2.30;;;;;;;;;;5113558;28;20039;-76
2022/01/22 03:32:49;;;;;;;4.55;2.42;;;;;;;;;;5114100;28;20094;-77
2022/01/22 03:37:45;;;;;;;4.18;2.35;;;;;;;;;;5114179;28;20019;-76
2022/01/22 03:40:15;;;;;;;5.38;2.25;;;;;;;;;;5095308;28;20024;-76
2022/01/22 03:42:41;;;;;;;4.18;2.63;;;;;;;;;;5113917;28;20016;-76
2022/01/22 03:45:09;;;;;;;3.40;2.22;;;;;;;;;;5113368;28;20063;-76
2022/01/22 03:47:35;;;;;;;4.95;2.35;;;;;;;;;;5113884;28;20076;-76
2022/01/22 03:50:01;;;;;;;5.57;2.88;;;;;;;;;;5114062;28;20020;-76
2022/01/22 03:52:27;;;;;;;4.82;2.45;;;;;;;;;;5113878;28;20487;-77
2022/01/22 03:54:53;;;;;;;4.80;3.03;;;;;;;;;;5113692;28;20164;-77
2022/01/22 03:57:22;;;;;;;3.45;2.28;;;;;;;;;;5112965;28;20061;-77
2022/01/22 03:59:49;;;;;;;5.10;2.75;;;;;;;;;;5113595;28;20019;-76
2022/01/22 04:04:45;;;;;;;4.85;2.70;;;;;;;;;;5113255;28;20034;-77
2022/01/22 04:09:45;;;;;;;5.80;3.00;;;;;;;;;;5113217;28;20028;-77
2022/01/22 04:12:18;;;;;;;4.53;2.60;;;;;;;;;;5113247;28;20032;-77
2022/01/22 04:14:50;;;;;;;4.18;2.55;;;;;;;;;;5095023;28;20111;-77
2022/01/22 04:17:24;;;;;;;4.03;2.67;;;;;;;;;;5113146;28;20418;-77
2022/01/22 04:25:23;;;;;;;5.85;2.65;;;;;;;;;;5113003;28;20034;-77
2022/01/22 04:27:51;;;;;;;4.20;2.40;;;;;;;;;;5112805;28;20012;-76
2022/01/22 04:30:17;;;;;;;6.15;2.70;;;;;;;;;;5112444;28;20023;-76
2022/01/22 04:32:43;;;;;;;12.98;3.10;;;;;;;;;;5112979;28;20099;-76
2022/01/22 04:35:09;;;;;;;6.28;2.97;;;;;;;;;;5112615;28;20066;-77
2022/01/22 04:37:36;;;;;;;4.18;2.60;;;;;;;;;;5094374;28;20080;-77
2022/01/22 04:40:02;;;;;;;5.00;2.65;;;;;;;;;;5112971;28;20016;-77
2022/01/22 04:42:31;;;;;;;4.25;2.30;;;;;;;;;;5112698;28;20102;-76
2022/01/22 04:45:03;;;;;;;6.85;2.97;;;;;;;;;;5112392;28;20035;-77
2022/01/22 04:47:42;;;;;;;5.45;2.70;;;;;;;;;;5112742;28;20483;-77
2022/01/22 04:55:34;;;;;;;4.32;2.63;;;;;;;;;;5112231;28;20111;-77
2022/01/22 04:58:03;;;;;;;5.18;3.05;;;;;;;;;;5112329;28;20460;-77
2022/01/22 05:00:31;;;;;;;5.10;2.72;;;;;;;;;;5094404;28;20032;-78
2022/01/22 05:02:57;;;;;;;4.53;2.40;;;;;;;;;;5112723;28;20020;-77
2022/01/22 05:05:24;;;;;;;6.93;3.17;;;;;;;;;;5111903;28;20031;-77
2022/01/22 05:07:50;;;;;;;5.72;2.92;;;;;;;;;;5093945;28;20027;-77
2022/01/22 05:10:16;;;;;;;4.15;2.60;;;;;;;;;;5111805;28;20065;-77
2022/01/22 05:12:42;;;;;;;4.97;2.67;;;;;;;;;;5093898;28;20047;-76
2022/01/22 05:15:09;;;;;;;4.78;2.70;;;;;;;;;;5111844;28;20471;-76
2022/01/22 05:17:38;;;;;;;4.40;2.75;;;;;;;;;;5112177;28;20027;-76
2022/01/22 05:20:14;;;;;;;6.20;2.80;;;;;;;;;;5111407;28;20027;-76
2022/01/22 05:25:15;;;;;;;5.75;3.05;;;;;;;;;;5111633;28;20115;-76
2022/01/22 05:27:57;;;;;;;4.60;2.78;;;;;;;;;;5111616;28;20024;-76
2022/01/22 05:38:27;;;;;;;7.40;3.20;;;;;;;;;;5111972;28;20471;-76
2022/01/22 05:40:53;;;;;;;6.03;2.75;;;;;;;;;;5111909;28;20537;-76
2022/01/22 05:43:19;;;;;;;6.95;3.65;;;;;;;;;;5111360;28;20016;-76
2022/01/22 05:45:45;;;;;;;5.82;3.25;;;;;;;;;;5111739;28;20081;-77
2022/01/22 05:48:11;;;;;;;5.90;2.95;;;;;;;;;;5111478;28;20023;-77
2022/01/22 05:50:51;;;;;;;3.90;2.75;;;;;;;;;;5111487;28;20107;-76
2022/01/22 06:01:06;;;;;;;4.75;2.97;;;;;;;;;;5110901;28;20046;-77
2022/01/22 06:03:32;;;;;;;5.45;3.17;;;;;;;;;;5111262;28;20023;-77
2022/01/22 06:05:59;;;;;;;5.32;3.22;;;;;;;;;;5111735;28;20036;-76
2022/01/22 06:08:30;;;;;;;6.25;3.15;;;;;;;;;;5111325;28;20020;-76
2022/01/22 06:10:58;;;;;;;6.13;3.20;;;;;;;;;;5093286;28;20395;-77
2022/01/22 06:13:33;;;;;;;5.40;2.95;;;;;;;;;;5111089;28;20441;-76
2022/01/22 06:15:59;;;;;;;5.82;3.10;;;;;;;;;;5093326;28;20024;-76
2022/01/22 06:18:25;;;;;;;4.95;2.92;;;;;;;;;;5111238;28;20027;-76
2022/01/22 06:20:51;;;;;;;5.40;3.28;;;;;;;;;;5111412;28;20027;-76
2022/01/22 06:23:17;;;;;;;6.00;2.75;;;;;;;;;;5111216;28;20026;-76
2022/01/22 06:25:43;;;;;;;5.28;2.83;;;;;;;;;;5111287;28;20471;-77
2022/01/22 06:28:09;;;;;;;5.22;2.55;;;;;;;;;;5110511;28;20132;-78
2022/01/22 06:30:35;;;;;;;4.43;2.80;;;;;;;;;;5111337;28;20440;-78
2022/01/22 06:33:01;;;;;;;5.03;2.78;;;;;;;;;;5113655;28;20027;-77
2022/01/22 06:35:27;;;;;;;4.55;3.17;;;;;;;;;;5115273;28;20140;-77
2022/01/22 06:37:53;;;;;;;4.18;2.67;;;;;;;;;;5114936;28;20027;-78
2022/01/22 06:42:45;;;;;;;5.13;3.42;;;;;;;;;;5115110;28;20020;-77
2022/01/22 06:45:12;;;;;;;5.65;3.38;;;;;;;;;;5114376;28;20122;-76
2022/01/22 06:47:38;;;;;;;6.30;3.17;;;;;;;;;;5115145;28;20023;-76
2022/01/22 06:50:04;;;;;;;4.50;2.90;;;;;;;;;;5114766;28;20106;-77
2022/01/22 06:52:31;;;;;;;6.85;2.97;;;;;;;;;;5115413;28;20099;-76
2022/01/22 06:54:57;;;;;;;6.63;3.40;;;;;;;;;;5115198;28;20031;-76
2022/01/22 06:57:23;;;;;;;4.40;2.78;;;;;;;;;;5114361;28;20035;-77
2022/01/22 06:59:49;;;;;;;4.93;2.88;;;;;;;;;;5114813;28;20379;-76
2022/01/22 07:02:17;;;;;;;4.57;2.85;;;;;;;;;;5113901;28;20023;-78
2022/01/22 07:04:43;;;;;;;5.90;3.25;;;;;;;;;;5096300;28;20071;-77
2022/01/22 07:07:12;;;;;;;4.32;2.75;;;;;;;;;;5114359;28;20035;-77
2022/01/22 07:09:38;;;;;;;4.78;2.72;;;;;;;;;;5114555;28;20027;-77
2022/01/22 07:12:08;;;;;;;5.25;3.15;;;;;;;;;;5114373;28;20053;-78
2022/01/22 07:14:34;;;;;;;5.88;3.10;;;;;;;;;;5114555;28;20016;-76
2022/01/22 07:17:00;;;;;;;4.88;2.83;;;;;;;;;;5114599;28;20031;-77
2022/01/22 07:19:26;;;;;;;5.88;3.38;;;;;;;;;;5114113;28;20034;-78
2022/01/22 07:22:05;;;;;;;5.00;3.08;;;;;;;;;;5114214;28;20609;-77
2022/01/22 07:24:37;;;;;;;6.82;3.45;;;;;;;;;;5114466;28;20054;-76
2022/01/22 07:27:03;;;;;;;5.50;3.08;;;;;;;;;;5113593;28;20122;-77
2022/01/22 07:29:29;;;;;;;7.78;3.20;;;;;;;;;;5113490;28;20067;-77
2022/01/22 07:32:00;;;;;;;5.78;3.30;;;;;;;;;;5112955;28;20523;-77
2022/01/22 07:34:26;;;;;;;5.03;2.83;;;;;;;;;;5113325;28;20102;-77
2022/01/22 07:36:52;;;;;;;4.85;3.10;;;;;;;;;;5113425;28;20028;-77
2022/01/22 07:39:18;;;;;;;6.72;3.22;;;;;;;;;;5113068;28;20584;-77
2022/01/22 07:41:44;;;;;;;6.13;3.55;;;;;;;;;;5129479;27;20072;-77
2022/01/22 07:44:10;;;;;;;5.60;3.35;;;;;;;;;;5133662;27;20027;-77
2022/01/22 07:46:36;;;;;;;6.03;2.95;;;;;;;;;;5115829;27;20035;-75
2022/01/22 07:49:05;;;;;;;5.32;3.13;;;;;;;;;;5134549;27;20015;-76
2022/01/22 07:51:31;;;;;;;5.45;3.08;;;;;;;;;;5134604;27;20499;-75
2022/01/22 07:53:57;;;;;;;4.70;3.55;;;;;;;;;;5134310;27;20027;-75
2022/01/22 07:56:23;;;;;;;6.38;2.95;;;;;;;;;;5131447;27;20051;-76
2022/01/22 07:58:49;;;;;;;5.53;3.05;;;;;;;;;;5113315;28;20027;-75
2022/01/22 08:01:15;;;;;;;5.43;2.80;;;;;;;;;;5113377;28;20391;-76
2022/01/22 08:03:41;;;;;;;4.82;3.15;;;;;;;;;;5113465;28;20378;-77
2022/01/22 08:06:07;;;;;;;5.32;3.05;;;;;;;;;;5112992;28;20126;-75
2022/01/22 08:08:34;;;;;;;5.30;3.10;;;;;;;;;;5113355;28;20027;-79
2022/01/22 08:11:00;;;;;;;4.93;2.78;;;;;;;;;;5113580;28;20472;-78
2022/01/22 08:13:26;;;;;;;5.88;3.05;;;;;;;;;;5112587;28;20028;-76
2022/01/22 08:15:52;;;;;;;11.05;3.33;;;;;;;;;;5110139;28;20037;-75
2022/01/22 08:18:18;;;;;;;5.30;3.10;;;;;;;;;;5112324;28;20395;-78
2022/01/22 08:20:44;;;;;;;5.75;3.13;;;;;;;;;;5112600;28;20027;-80
2022/01/22 08:23:11;;;;;;;7.03;3.47;;;;;;;;;;5093426;28;20019;-83
2022/01/22 08:25:39;;;;;;;7.07;4.63;;;;;;;;;;5111274;28;20150;-82
2022/01/22 08:30:35;;;;;;;5.10;3.15;;;;;;;;;;5111595;28;20110;-80
2022/01/22 08:35:53;;;;;;;6.40;3.90;;;;;;;;;;5111289;28;20047;-81
2022/01/22 08:38:19;;;;;;;6.78;2.95;;;;;;;;;;5110046;28;20030;-81
2022/01/22 08:40:45;;;;;;;8.95;3.95;;;;;;;;;;5111127;28;20019;-80
2022/01/22 08:43:11;;;;;;;5.32;3.45;;;;;;;;;;5111639;27;20498;-76
2022/01/22 08:45:37;;;;;;;5.35;3.63;;;;;;;;;;5112579;28;20089;-76
2022/01/22 08:48:04;;;;;;;7.28;3.67;;;;;;;;;;5112498;28;20459;-76
2022/01/22 08:50:30;;;;;;;6.82;3.83;;;;;;;;;;5112992;28;20027;-76
2022/01/22 08:52:56;;;;;;;8.80;3.80;;;;;;;;;;5112506;28;20051;-77
2022/01/22 08:55:22;;;;;;;11.27;3.80;;;;;;;;;;5111521;28;20498;-76
2022/01/22 08:57:49;;;;;;;8.85;3.58;;;;;;;;;;5111754;28;20475;-77
2022/01/22 09:00:16;;;;;;;9.65;3.90;;;;;;;;;;5111504;28;20023;-78
2022/01/22 09:02:44;;;;;;;12.85;4.50;;;;;;;;;;5112370;28;20516;-75
2022/01/22 09:05:10;;;;;;;14.73;4.60;;;;;;;;;;5112032;28;20024;-82
2022/01/22 09:07:36;;;;;;;24.67;4.93;;;;;;;;;;5093918;28;20038;-76
2022/01/22 09:10:03;;;;;;;21.77;4.15;;;;;;;;;;5112206;28;20016;-76
2022/01/22 09:12:29;;;;;;;14.43;3.88;;;;;;;;;;5112514;28;20027;-79
2022/01/22 09:14:55;;;;;;;13.00;4.45;;;;;;;;;;5112192;28;20102;-79
2022/01/22 09:17:22;;;;;;;12.63;4.10;;;;;;;;;;5112879;28;20019;-78
2022/01/22 09:19:48;;;;;;;15.85;3.97;;;;;;;;;;5093861;28;20053;-77
2022/01/22 09:22:15;;;;;;;20.05;4.78;;;;;;;;;;5111658;28;20391;-80
2022/01/22 09:24:41;;;;;;;25.00;5.57;;;;;;;;;;5111889;28;20038;-80
2022/01/22 09:27:08;;;;;;;14.32;4.70;;;;;;;;;;5111068;28;20416;-81
2022/01/22 09:29:35;;;;;;;14.77;4.72;;;;;;;;;;5093499;28;20031;-82
2022/01/22 09:32:01;;;;;;;20.33;5.18;;;;;;;;;;5112033;28;20413;-82
2022/01/22 09:34:27;;;;;;;11.80;4.18;;;;;;;;;;5111903;28;20102;-79
2022/01/22 09:36:53;;;;;;;17.98;4.50;;;;;;;;;;5112251;28;20150;-80
2022/01/22 09:39:19;;;;;;;14.50;4.75;;;;;;;;;;5111671;28;20028;-80
2022/01/22 09:41:45;;;;;;;9.43;4.68;;;;;;;;;;5111786;28;20027;-86
2022/01/22 09:44:12;;;;;;;14.30;4.65;;;;;;;;;;5111413;28;20035;-83
2022/01/22 09:46:40;;;;;;;12.13;4.63;;;;;;;;;;5092893;28;20039;-80
2022/01/22 09:49:06;;;;;;;12.02;3.65;;;;;;;;;;5112186;28;20539;-80
2022/01/22 09:51:32;;;;;;;11.35;4.35;;;;;;;;;;5111749;28;20059;-80
2022/01/22 09:53:59;;;;;;;10.98;4.13;;;;;;;;;;5111965;28;20020;-83
2022/01/22 09:56:28;;;;;;;17.40;4.07;;;;;;;;;;5110925;28;20402;-84
2022/01/22 09:58:54;;;;;;;12.93;4.80;;;;;;;;;;5111695;28;20011;-83
2022/01/22 10:01:25;;;;;;;12.05;4.35;;;;;;;;;;5111825;28;20051;-80
2022/01/22 10:03:53;;;;;;;11.85;4.38;;;;;;;;;;5111673;28;20016;-84
2022/01/22 10:06:20;;;;;;;15.98;4.15;;;;;;;;;;5111983;28;20407;-83
2022/01/22 10:08:46;;;;;;;12.60;4.03;;;;;;;;;;5115856;28;20019;-79
2022/01/22 10:11:16;;;;;;;9.60;3.72;;;;;;;;;;5115372;28;20030;-79
2022/01/22 10:13:47;;;;;;;10.52;3.55;;;;;;;;;;5115893;28;20046;-80
2022/01/22 10:16:14;;;;;;;13.25;3.85;;;;;;;;;;5115435;28;20077;-79
2022/01/22 10:18:40;;;;;;;8.35;3.90;;;;;;;;;;5097199;28;20027;-78
2022/01/22 10:21:10;;;;;;;8.27;3.15;;;;;;;;;;5115349;28;20028;-79
2022/01/22 10:23:39;;;;;;;7.80;3.00;;;;;;;;;;5097200;28;20154;-79
2022/01/22 10:26:07;;;;;;;6.05;2.78;;;;;;;;;;5114738;28;20039;-79
2022/01/22 10:28:46;;;;;;;8.90;2.63;;;;;;;;;;5114445;28;20016;-83
2022/01/22 10:31:20;;;;;;;7.22;2.83;;;;;;;;;;5115090;28;20020;-80
2022/01/22 10:34:03;;;;;;;5.18;2.88;;;;;;;;;;5115293;28;20084;-77
2022/01/22 10:36:29;;;;;;;6.35;2.78;;;;;;;;;;5115541;28;20023;-77
2022/01/22 10:38:55;;;;;;;5.70;3.08;;;;;;;;;;5115222;28;20106;-77
2022/01/22 10:41:38;;;;;;;8.32;3.00;;;;;;;;;;5114945;28;20077;-79
2022/01/22 10:44:07;;;;;;;9.85;3.63;;;;;;;;;;5114565;28;20028;-78
2022/01/22 10:46:45;;;;;;;7.65;2.97;;;;;;;;;;5114935;28;20088;-77
2022/01/22 10:49:12;;;;;;;9.55;2.80;;;;;;;;;;5114628;28;20085;-77
2022/01/22 10:51:46;;;;;;;8.05;3.17;;;;;;;;;;5114834;28;20471;-78
2022/01/22 10:54:12;;;;;;;8.70;2.63;;;;;;;;;;5114669;28;20092;-78
2022/01/22 10:56:40;;;;;;;7.60;2.80;;;;;;;;;;5114475;28;20398;-78
2022/01/22 10:59:07;;;;;;;5.53;3.00;;;;;;;;;;5114518;28;20016;-80
2022/01/22 11:01:51;;;;;;;6.45;2.70;;;;;;;;;;5114899;28;20027;-79
2022/01/22 11:04:28;;;;;;;4.60;2.67;;;;;;;;;;5114257;28;20031;-77
2022/01/22 11:06:54;;;;;;;5.70;2.78;;;;;;;;;;5114674;28;20522;-78
2022/01/22 11:09:20;;;;;;;5.85;2.75;;;;;;;;;;5114343;28;20016;-80
2022/01/22 11:11:47;;;;;;;4.35;2.60;;;;;;;;;;5096626;28;20039;-78
2022/01/22 11:14:13;;;;;;;8.82;3.30;;;;;;;;;;5114239;28;20086;-79
2022/01/22 11:16:42;;;;;;;8.57;3.88;;;;;;;;;;5114695;28;20379;-79
2022/01/22 11:19:09;;;;;;;7.63;3.60;;;;;;;;;;5113316;28;20076;-78
2022/01/22 11:21:36;;;;;;;9.13;3.40;;;;;;;;;;5114206;28;20028;-80
2022/01/22 11:24:03;;;;;;;6.32;3.58;;;;;;;;;;5114122;28;20024;-77
2022/01/22 11:26:30;;;;;;;7.50;3.72;;;;;;;;;;5114103;28;20039;-80
2022/01/22 11:28:56;;;;;;;7.55;3.42;;;;;;;;;;5113846;28;20030;-79
2022/01/22 11:31:24;;;;;;;7.95;3.33;;;;;;;;;;5114030;28;20545;-78
2022/01/22 11:33:51;;;;;;;4.75;3.25;;;;;;;;;;5114068;28;20108;-77
2022/01/22 11:36:29;;;;;;;8.90;3.17;;;;;;;;;;5113784;28;20035;-77
2022/01/22 11:38:56;;;;;;;7.70;3.83;;;;;;;;;;5113980;28;20023;-77
2022/01/22 11:41:23;;;;;;;6.60;2.90;;;;;;;;;;5113829;28;20367;-77
2022/01/22 11:43:52;;;;;;;5.85;3.75;;;;;;;;;;5113672;28;20037;-77
2022/01/22 11:46:32;;;;;;;7.43;3.50;;;;;;;;;;5113505;28;20085;-78
2022/01/22 11:49:16;;;;;;;5.43;3.10;;;;;;;;;;5114263;28;20046;-79
2022/01/22 11:51:46;;;;;;;6.15;3.15;;;;;;;;;;5113700;28;20023;-79
2022/01/22 11:54:12;;;;;;;9.60;3.47;;;;;;;;;;5113472;28;20483;-79
2022/01/22 11:56:53;;;;;;;11.75;3.38;;;;;;;;;;5113216;28;20034;-79
2022/01/22 11:59:22;;;;;;;7.05;3.22;;;;;;;;;;5112723;28;20403;-78
2022/01/22 12:01:51;;;;;;;7.03;4.10;;;;;;;;;;5113729;28;20027;-78
2022/01/22 12:04:18;;;;;;;10.77;4.35;;;;;;;;;;5113281;28;20023;-77
2022/01/22 12:07:03;;;;;;;7.43;3.63;;;;;;;;;;5113116;28;20043;-78
2022/01/22 12:09:36;;;;;;;7.50;4.15;;;;;;;;;;5093230;28;20386;-77
2022/01/22 12:15:06;;;;;;;7.80;3.60;;;;;;;;;;5109169;28;20404;-76
2022/01/22 12:17:57;;;;;;;7.10;4.05;;;;;;;;;;5112037;28;20087;-76
2022/01/22 12:23:11;;;;;;;5.63;3.83;;;;;;;;;;5112979;28;20051;-77
2022/01/22 12:25:40;;;;;;;6.85;3.30;;;;;;;;;;5112633;28;20039;-77
2022/01/22 12:28:07;;;;;;;5.63;3.35;;;;;;;;;;5112822;28;20035;-78
2022/01/22 12:30:36;;;;;;;28.48;5.32;;;;;;;;;;5113149;27;20544;-78
2022/01/22 12:33:02;;;;;;;6.35;3.42;;;;;;;;;;5112155;28;20023;-77
2022/01/22 12:35:38;;;;;;;9.15;3.97;;;;;;;;;;5113115;28;20472;-80
2022/01/22 12:38:23;;;;;;;6.28;3.25;;;;;;;;;;5112611;27;20495;-77
2022/01/22 12:40:53;;;;;;;6.33;4.00;;;;;;;;;;5112864;28;20020;-78
2022/01/22 12:43:29;;;;;;;5.38;3.38;;;;;;;;;;5115910;27;20023;-78
2022/01/22 12:45:56;;;;;;;6.00;3.75;;;;;;;;;;5115510;27;20020;-78
2022/01/22 12:48:22;;;;;;;6.63;2.92;;;;;;;;;;5112272;28;20074;-77
2022/01/22 12:50:48;;;;;;;5.55;3.17;;;;;;;;;;5112595;28;20103;-77
2022/01/22 12:53:16;;;;;;;8.55;3.72;;;;;;;;;;5112376;28;20219;-77
2022/01/22 12:58:37;;;;;;;5.28;3.30;;;;;;;;;;5083267;28;20481;-76
2022/01/22 13:01:11;;;;;;;7.70;4.45;;;;;;;;;;5112220;28;20368;-76
2022/01/22 13:03:58;;;;;;;9.02;4.35;;;;;;;;;;5112222;28;20035;-76
2022/01/22 13:06:25;;;;;;;6.05;4.22;;;;;;;;;;5112086;28;20024;-76
2022/01/22 13:08:58;;;;;;;7.22;3.97;;;;;;;;;;5094058;28;20053;-76
2022/01/22 13:11:28;;;;;;;7.30;4.40;;;;;;;;;;5111944;28;20025;-77
2022/01/22 13:13:55;;;;;;;5.57;4.03;;;;;;;;;;5112278;28;20035;-77
2022/01/22 13:16:21;;;;;;;6.88;4.13;;;;;;;;;;5111848;28;20049;-77
2022/01/22 13:18:58;;;;;;;6.10;4.00;;;;;;;;;;5112191;28;20030;-77
2022/01/22 13:21:25;;;;;;;6.40;3.72;;;;;;;;;;5111929;28;20026;-76
2022/01/22 13:23:58;;;;;;;8.02;4.38;;;;;;;;;;5112153;28;20038;-76
2022/01/22 13:26:38;;;;;;;6.47;3.95;;;;;;;;;;5111394;28;20604;-77
2022/01/22 13:29:16;;;;;;;4.93;4.10;;;;;;;;;;5111648;28;20028;-76
2022/01/22 13:31:55;;;;;;;7.43;3.83;;;;;;;;;;5111866;28;20031;-76
2022/01/22 13:34:32;;;;;;;5.70;3.97;;;;;;;;;;5111731;28;20016;-77
2022/01/22 13:37:39;;;;;;;5.18;3.45;;;;;;;;;;5093812;28;20034;-77
2022/01/22 13:48:27;;;;;;;5.78;3.92;;;;;;;;;;5111653;28;20036;-76
2022/01/22 13:50:53;;;;;;;6.07;4.05;;;;;;;;;;5111729;28;20080;-77
2022/01/22 13:53:19;;;;;;;4.82;3.63;;;;;;;;;;5093185;28;20019;-77
2022/01/22 13:55:58;;;;;;;4.63;3.42;;;;;;;;;;5111163;28;20491;-78
2022/01/22 13:58:24;;;;;;;6.60;4.53;;;;;;;;;;5092866;28;20019;-77
2022/01/22 14:00:51;;;;;;;5.97;4.00;;;;;;;;;;5111584;28;20028;-77
2022/01/22 14:05:52;;;;;;;8.27;5.70;;;;;;;;;;5090973;28;20816;-78
2022/01/22 14:08:29;;;;;;;5.80;4.68;;;;;;;;;;5091063;28;20047;-76
2022/01/22 14:11:09;;;;;;;5.07;4.00;;;;;;;;;;5091148;28;20028;-77
2022/01/22 14:13:36;;;;;;;5.75;4.15;;;;;;;;;;5096851;28;20031;-76
2022/01/22 14:16:15;;;;;;;6.50;4.40;;;;;;;;;;5111523;28;20543;-76
2022/01/22 14:18:41;;;;;;;6.28;3.90;;;;;;;;;;5111516;28;20022;-76
2022/01/22 14:21:09;;;;;;;9.60;4.35;;;;;;;;;;5093014;28;20032;-77
2022/01/22 14:23:36;;;;;;;11.52;4.82;;;;;;;;;;5111566;28;20518;-77
2022/01/22 14:26:05;;;;;;;8.00;4.43;;;;;;;;;;5111682;28;20031;-77
2022/01/22 14:28:50;;;;;;;8.43;4.78;;;;;;;;;;5111803;28;20031;-77
2022/01/22 14:31:25;;;;;;;9.50;4.90;;;;;;;;;;5111177;28;20081;-77
2022/01/22 14:33:51;;;;;;;11.15;5.03;;;;;;;;;;5111055;28;20096;-78
2022/01/22 14:36:19;;;;;;;8.10;4.85;;;;;;;;;;5110237;28;20495;-78
2022/01/22 14:38:57;;;;;;;8.88;5.22;;;;;;;;;;5111303;28;20501;-78
2022/01/22 14:47:03;;;;;;;7.47;4.95;;;;;;;;;;5111048;28;20063;-77
2022/01/22 14:49:38;;;;;;;7.70;5.40;;;;;;;;;;5095028;28;20122;-76
2022/01/22 14:52:04;;;;;;;9.50;5.28;;;;;;;;;;5110098;28;20035;-77
2022/01/22 14:54:32;;;;;;;7.47;4.85;;;;;;;;;;5094534;28;20020;-76
2022/01/22 14:56:58;;;;;;;5.80;4.57;;;;;;;;;;5114323;28;20081;-76
2022/01/22 14:59:24;;;;;;;8.50;4.57;;;;;;;;;;5113494;28;20079;-77
2022/01/22 15:01:51;;;;;;;7.45;3.95;;;;;;;;;;5113915;28;20094;-81
2022/01/22 15:04:17;;;;;;;8.63;4.82;;;;;;;;;;5113737;28;20100;-76
2022/01/22 15:06:44;;;;;;;7.78;4.95;;;;;;;;;;5113752;28;20606;-75
2022/01/22 15:09:10;;;;;;;7.00;4.05;;;;;;;;;;5113309;28;20035;-76
2022/01/22 15:11:39;;;;;;;6.47;4.40;;;;;;;;;;5113238;28;20035;-76
2022/01/22 15:14:06;;;;;;;7.30;4.68;;;;;;;;;;5113088;28;20479;-77
2022/01/22 15:16:37;;;;;;;7.18;4.50;;;;;;;;;;5113754;28;20015;-77
2022/01/22 15:19:11;;;;;;;7.28;4.68;;;;;;;;;;5113299;28;20359;-75
2022/01/22 15:21:37;;;;;;;5.40;3.72;;;;;;;;;;5113560;28;20076;-81
2022/01/22 15:24:03;;;;;;;7.75;3.83;;;;;;;;;;5094986;28;20023;-81
2022/01/22 15:26:30;;;;;;;6.78;4.07;;;;;;;;;;5092606;28;20024;-77
2022/01/22 15:28:56;;;;;;;4.88;3.80;;;;;;;;;;5113393;28;20019;-76
2022/01/22 15:34:06;;;;;;;6.50;4.22;;;;;;;;;;5111434;28;20539;-77
2022/01/22 15:36:32;;;;;;;6.88;4.43;;;;;;;;;;5114064;28;20035;-76
2022/01/22 15:38:58;;;;;;;6.97;4.07;;;;;;;;;;5114505;28;20032;-79
2022/01/22 15:41:24;;;;;;;5.57;3.65;;;;;;;;;;5113550;28;20016;-77
2022/01/22 15:43:50;;;;;;;6.05;3.10;;;;;;;;;;5113468;28;20024;-83
2022/01/22 15:46:16;;;;;;;6.90;3.95;;;;;;;;;;5113679;28;20057;-83
2022/01/22 15:48:43;;;;;;;6.53;3.85;;;;;;;;;;5113824;28;20024;-84
2022/01/22 15:51:10;;;;;;;5.03;3.70;;;;;;;;;;5113548;28;20024;-84
2022/01/22 15:53:36;;;;;;;6.47;3.70;;;;;;;;;;5113937;28;20016;-83
2022/01/22 15:56:03;;;;;;;4.55;3.45;;;;;;;;;;5113687;28;20026;-77
2022/01/22 15:58:29;;;;;;;8.20;4.50;;;;;;;;;;5114099;28;20487;-77
2022/01/22 16:00:55;;;;;;;4.97;3.58;;;;;;;;;;5113668;28;20023;-79
2022/01/22 16:03:24;;;;;;;6.60;3.85;;;;;;;;;;5094941;28;20126;-78
2022/01/22 16:05:50;;;;;;;6.03;3.70;;;;;;;;;;5113069;28;20035;-78
2022/01/22 16:08:16;;;;;;;5.05;3.47;;;;;;;;;;5113291;28;20027;-77
2022/01/22 16:10:42;;;;;;;6.75;3.53;;;;;;;;;;5113311;28;20034;-80
2022/01/22 16:13:08;;;;;;;7.20;3.92;;;;;;;;;;5112835;28;20425;-84
2022/01/22 16:15:34;;;;;;;5.57;3.58;;;;;;;;;;5113225;28;20027;-83
2022/01/22 16:18:00;;;;;;;5.32;3.60;;;;;;;;;;5113653;28;20024;-77
2022/01/22 16:20:26;;;;;;;4.97;3.80;;;;;;;;;;5112636;28;20028;-77
2022/01/22 16:22:52;;;;;;;6.43;3.53;;;;;;;;;;5094937;28;20511;-77
2022/01/22 16:25:19;;;;;;;5.15;3.20;;;;;;;;;;5112929;28;20098;-76
2022/01/22 16:27:45;;;;;;;6.03;3.50;;;;;;;;;;5112397;28;20388;-76
2022/01/22 16:30:11;;;;;;;6.38;3.63;;;;;;;;;;5094616;28;20114;-77
2022/01/22 16:32:37;;;;;;;5.47;3.55;;;;;;;;;;5094740;28;20020;-76
2022/01/22 16:35:03;;;;;;;6.10;3.38;;;;;;;;;;5094522;28;20026;-76
2022/01/22 16:37:29;;;;;;;5.07;3.67;;;;;;;;;;5095050;28;20387;-79
2022/01/22 16:39:57;;;;;;;4.68;3.28;;;;;;;;;;5112828;28;20027;-79
2022/01/22 16:42:26;;;;;;;5.80;3.65;;;;;;;;;;5094249;28;20081;-81
2022/01/22 16:53:15;;;;;;;4.53;3.53;;;;;;;;;;5112669;28;20157;-77
2022/01/22 16:57:59;;;;;;;6.00;3.40;;;;;;;;;;5112006;28;19998;-76
2022/01/22 17:00:30;;;;;;;3.85;2.97;;;;;;;;;;5112199;28;20023;-82
2022/01/22 17:02:56;;;;;;;4.43;3.33;;;;;;;;;;5112527;28;20023;-77
2022/01/22 17:05:23;;;;;;;5.57;3.67;;;;;;;;;;5093844;28;20491;-77